Аэропорт
Владивосток (UHWW)

 UHWW / VVO
ЗЦ Хабаровск
Хабаровск (UHHH)
Хабаровск (UHHH)
 43.39900, 132.14800  / 46 ft

 UHWW 251330Z 25004MPS 9999 NSC 15/13 Q1013 R25L/0///70 NOSIG RMK QFE758
 TAF UHWW 250200Z 2503/2603 23003MPS 5000 -SHRA BKN020CB TEMPO 2503/2510 24008MPS 3500 -SHRA BKN013CB
UHWW_aip_1709
показать схемы
Название сценария Тип сценария Flight Simulator 9 Flight Simulator X Prepar3D v2 Prepar3D v3 xPlane
UHWW, Vladivostok 1.0.0 X-Flight бесплатный
UHWW, Vladivostok 2017 v 1.2 бесплатный
uhww-scenery-fs9-1408 бесплатный
uhww-scenery-fsx-1304 бесплатный
uhww-scenery-p3d-1502 бесплатный



2017 © VATRUS division